sensor_id;sensor_type;location;lat;lon;timestamp;pressure;altitude;pressure_sealevel;temperature;humidity
29215;BME280;16252;49.816;7.964;2023-01-27T00:00:52;100434.91;;;4.78;66.35
29215;BME280;16252;49.816;7.964;2023-01-27T00:03:18;100412.53;;;4.65;66.14
29215;BME280;16252;49.816;7.964;2023-01-27T00:05:45;100451.25;;;4.88;66.05
29215;BME280;16252;49.816;7.964;2023-01-27T00:08:10;100435.00;;;4.76;66.37
29215;BME280;16252;49.816;7.964;2023-01-27T00:10:36;100433.91;;;4.81;66.09
29215;BME280;16252;49.816;7.964;2023-01-27T00:13:02;100443.16;;;4.91;66.10
29215;BME280;16252;49.816;7.964;2023-01-27T00:15:45;100420.00;;;4.75;66.03
29215;BME280;16252;49.816;7.964;2023-01-27T00:18:11;100418.16;;;4.77;66.27
29215;BME280;16252;49.816;7.964;2023-01-27T00:20:36;100415.56;;;4.76;66.19
29215;BME280;16252;49.816;7.964;2023-01-27T00:23:23;100425.75;;;4.85;66.26
29215;BME280;16252;49.816;7.964;2023-01-27T00:26:10;100442.03;;;4.96;66.14
29215;BME280;16252;49.816;7.964;2023-01-27T00:28:37;100434.16;;;4.95;66.11
29215;BME280;16252;49.816;7.964;2023-01-27T00:31:03;100398.88;;;4.74;65.99
29215;BME280;16252;49.816;7.964;2023-01-27T00:33:29;100435.84;;;4.96;66.14
29215;BME280;16252;49.816;7.964;2023-01-27T00:35:58;100416.00;;;4.86;66.14
29215;BME280;16252;49.816;7.964;2023-01-27T00:38:26;100421.09;;;4.90;66.16
29215;BME280;16252;49.816;7.964;2023-01-27T00:40:51;100420.53;;;4.84;66.02
29215;BME280;16252;49.816;7.964;2023-01-27T00:43:35;100419.66;;;4.83;66.11
29215;BME280;16252;49.816;7.964;2023-01-27T00:46:00;100418.75;;;4.84;66.25
29215;BME280;16252;49.816;7.964;2023-01-27T00:48:26;100415.44;;;4.79;66.27
29215;BME280;16252;49.816;7.964;2023-01-27T00:50:51;100419.59;;;4.85;66.50
29215;BME280;16252;49.816;7.964;2023-01-27T00:53:17;100404.75;;;4.81;66.32
29215;BME280;16252;49.816;7.964;2023-01-27T00:55:42;100419.44;;;4.88;66.08
29215;BME280;16252;49.816;7.964;2023-01-27T00:58:07;100398.00;;;4.73;66.40
29215;BME280;16252;49.816;7.964;2023-01-27T01:00:32;100436.00;;;4.93;66.23
29215;BME280;16252;49.816;7.964;2023-01-27T01:02:58;100399.75;;;4.74;66.35
29215;BME280;16252;49.816;7.964;2023-01-27T01:05:23;100422.91;;;4.90;66.37
29215;BME280;16252;49.816;7.964;2023-01-27T01:07:48;100414.34;;;4.83;66.16
29215;BME280;16252;49.816;7.964;2023-01-27T01:10:14;100421.25;;;4.87;66.44
29215;BME280;16252;49.816;7.964;2023-01-27T01:12:39;100434.34;;;4.90;66.68
29215;BME280;16252;49.816;7.964;2023-01-27T01:15:05;100425.69;;;4.87;66.41
29215;BME280;16252;49.816;7.964;2023-01-27T01:17:30;100403.59;;;4.67;66.65
29215;BME280;16252;49.816;7.964;2023-01-27T01:19:56;100433.44;;;4.91;66.50
29215;BME280;16252;49.816;7.964;2023-01-27T01:22:21;100431.06;;;4.85;66.43
29215;BME280;16252;49.816;7.964;2023-01-27T01:24:46;100432.84;;;4.85;66.48
29215;BME280;16252;49.816;7.964;2023-01-27T01:27:12;100432.00;;;4.84;66.64
29215;BME280;16252;49.816;7.964;2023-01-27T01:29:37;100414.13;;;4.69;66.34
29215;BME280;16252;49.816;7.964;2023-01-27T01:32:02;100431.34;;;4.79;66.34
29215;BME280;16252;49.816;7.964;2023-01-27T01:34:28;100420.94;;;4.74;66.43
29215;BME280;16252;49.816;7.964;2023-01-27T01:36:53;100446.63;;;4.93;66.05
29215;BME280;16252;49.816;7.964;2023-01-27T01:39:18;100434.44;;;4.89;66.33
29215;BME280;16252;49.816;7.964;2023-01-27T01:41:44;100448.34;;;4.94;66.39
29215;BME280;16252;49.816;7.964;2023-01-27T01:44:27;100429.78;;;4.94;66.44
29215;BME280;16252;49.816;7.964;2023-01-27T01:46:53;100434.28;;;4.92;66.34
29215;BME280;16252;49.816;7.964;2023-01-27T01:49:22;100430.69;;;4.93;66.34
29215;BME280;16252;49.816;7.964;2023-01-27T01:52:02;100435.84;;;4.96;66.48
29215;BME280;16252;49.816;7.964;2023-01-27T01:54:33;100446.25;;;5.00;66.36
29215;BME280;16252;49.816;7.964;2023-01-27T01:57:27;100433.00;;;5.00;66.40
29215;BME280;16252;49.816;7.964;2023-01-27T02:00:06;100427.91;;;4.96;66.48
29215;BME280;16252;49.816;7.964;2023-01-27T02:02:32;100442.31;;;4.90;66.12
29215;BME280;16252;49.816;7.964;2023-01-27T02:05:07;100448.75;;;5.04;66.53
29215;BME280;16252;49.816;7.964;2023-01-27T02:07:53;100450.41;;;5.06;66.50
29215;BME280;16252;49.816;7.964;2023-01-27T02:10:21;100403.25;;;4.75;66.31
29215;BME280;16252;49.816;7.964;2023-01-27T02:12:46;100410.69;;;4.86;66.30
29215;BME280;16252;49.816;7.964;2023-01-27T02:15:11;100420.25;;;4.90;66.29
29215;BME280;16252;49.816;7.964;2023-01-27T02:17:37;100436.75;;;4.96;66.36
29215;BME280;16252;49.816;7.964;2023-01-27T02:20:20;100451.28;;;5.07;66.42
29215;BME280;16252;49.816;7.964;2023-01-27T02:28:02;100423.59;;;4.93;66.39
29215;BME280;16252;49.816;7.964;2023-01-27T02:30:29;100430.44;;;4.99;66.51
29215;BME280;16252;49.816;7.964;2023-01-27T02:32:54;100412.50;;;4.85;66.42
29215;BME280;16252;49.816;7.964;2023-01-27T02:35:30;100413.94;;;4.92;66.60
29215;BME280;16252;49.816;7.964;2023-01-27T02:37:58;100388.41;;;4.71;66.42
29215;BME280;16252;49.816;7.964;2023-01-27T02:40:24;100432.44;;;4.94;66.40
29215;BME280;16252;49.816;7.964;2023-01-27T02:42:54;100406.28;;;4.86;66.73
29215;BME280;16252;49.816;7.964;2023-01-27T02:45:20;100422.91;;;4.90;66.54
29215;BME280;16252;49.816;7.964;2023-01-27T02:47:45;100428.78;;;4.96;66.54
29215;BME280;16252;49.816;7.964;2023-01-27T02:50:10;100433.00;;;5.00;66.51
29215;BME280;16252;49.816;7.964;2023-01-27T02:52:36;100440.25;;;4.97;66.44
29215;BME280;16252;49.816;7.964;2023-01-27T02:55:01;100430.66;;;4.94;66.53
29215;BME280;16252;49.816;7.964;2023-01-27T02:57:26;100434.75;;;5.02;66.65
29215;BME280;16252;49.816;7.964;2023-01-27T02:59:51;100421.88;;;4.92;66.44
29215;BME280;16252;49.816;7.964;2023-01-27T03:02:17;100407.19;;;4.85;66.56
29215;BME280;16252;49.816;7.964;2023-01-27T03:04:47;100437.50;;;4.98;66.55
29215;BME280;16252;49.816;7.964;2023-01-27T03:07:12;100423.69;;;4.92;66.47
29215;BME280;16252;49.816;7.964;2023-01-27T03:09:37;100446.34;;;4.99;66.56
29215;BME280;16252;49.816;7.964;2023-01-27T03:12:03;100437.25;;;5.05;66.63
29215;BME280;16252;49.816;7.964;2023-01-27T03:14:50;100440.69;;;5.07;66.80
29215;BME280;16252;49.816;7.964;2023-01-27T03:17:36;100449.56;;;5.06;66.84
29215;BME280;16252;49.816;7.964;2023-01-27T03:20:21;100458.25;;;5.09;66.63
29215;BME280;16252;49.816;7.964;2023-01-27T03:22:48;100441.69;;;5.04;66.69
29215;BME280;16252;49.816;7.964;2023-01-27T03:25:14;100422.59;;;4.96;66.52
29215;BME280;16252;49.816;7.964;2023-01-27T03:27:39;100442.41;;;5.08;66.59
29215;BME280;16252;49.816;7.964;2023-01-27T03:30:06;100435.44;;;5.05;66.71
29215;BME280;16252;49.816;7.964;2023-01-27T03:32:32;100447.06;;;5.03;66.46
29215;BME280;16252;49.816;7.964;2023-01-27T03:34:57;100453.66;;;5.13;66.49
29215;BME280;16252;49.816;7.964;2023-01-27T03:37:24;100436.50;;;5.01;66.45
29215;BME280;16252;49.816;7.964;2023-01-27T03:40:10;100449.50;;;5.07;66.54
29215;BME280;16252;49.816;7.964;2023-01-27T03:42:54;100440.91;;;5.02;66.45
29215;BME280;16252;49.816;7.964;2023-01-27T03:45:39;100445.34;;;5.02;66.35
29215;BME280;16252;49.816;7.964;2023-01-27T03:48:25;100434.28;;;4.92;66.45
29215;BME280;16252;49.816;7.964;2023-01-27T03:50:56;100363.59;;;4.53;66.47
29215;BME280;16252;49.816;7.964;2023-01-27T03:53:21;100444.47;;;5.01;66.55
29215;BME280;16252;49.816;7.964;2023-01-27T03:55:47;100423.94;;;4.86;66.57
29215;BME280;16252;49.816;7.964;2023-01-27T03:58:19;100444.56;;;4.99;66.87
29215;BME280;16252;49.816;7.964;2023-01-27T04:00:48;100415.00;;;4.88;66.84
29215;BME280;16252;49.816;7.964;2023-01-27T04:03:13;100442.81;;;4.98;66.76
29215;BME280;16252;49.816;7.964;2023-01-27T04:06:01;100461.25;;;5.20;66.79
29215;BME280;16252;49.816;7.964;2023-01-27T04:08:45;100441.91;;;4.99;66.47
29215;BME280;16252;49.816;7.964;2023-01-27T04:11:10;100454.72;;;5.09;66.40
29215;BME280;16252;49.816;7.964;2023-01-27T04:13:54;100444.47;;;5.01;66.65
29215;BME280;16252;49.816;7.964;2023-01-27T04:16:20;100465.25;;;5.10;66.77
29215;BME280;16252;49.816;7.964;2023-01-27T04:18:52;100441.69;;;5.04;66.63
29215;BME280;16252;49.816;7.964;2023-01-27T04:21:18;100468.72;;;5.12;66.69
29215;BME280;16252;49.816;7.964;2023-01-27T04:23:43;100429.91;;;4.91;66.57
29215;BME280;16252;49.816;7.964;2023-01-27T04:26:08;100455.94;;;5.02;66.63
29215;BME280;16252;49.816;7.964;2023-01-27T04:28:34;100413.66;;;4.80;66.69
29215;BME280;16252;49.816;7.964;2023-01-27T04:30:59;100442.91;;;4.97;66.69
29215;BME280;16252;49.816;7.964;2023-01-27T04:33:25;100467.13;;;5.08;66.81
29215;BME280;16252;49.816;7.964;2023-01-27T04:35:50;100470.56;;;5.10;66.84
29215;BME280;16252;49.816;7.964;2023-01-27T04:38:15;100456.00;;;5.00;66.82
29215;BME280;16252;49.816;7.964;2023-01-27T04:40:41;100461.25;;;5.02;66.88
29215;BME280;16252;49.816;7.964;2023-01-27T04:43:07;100426.69;;;4.84;66.80
29215;BME280;16252;49.816;7.964;2023-01-27T04:45:32;100450.00;;;4.96;66.99
29215;BME280;16252;49.816;7.964;2023-01-27T04:47:58;100466.31;;;5.06;67.14
29215;BME280;16252;49.816;7.964;2023-01-27T04:50:23;100454.41;;;4.96;66.91
29215;BME280;16252;49.816;7.964;2023-01-27T04:52:48;100470.72;;;5.07;66.89
29215;BME280;16252;49.816;7.964;2023-01-27T04:55:14;100474.06;;;5.11;66.91
29215;BME280;16252;49.816;7.964;2023-01-27T04:57:39;100477.69;;;5.10;66.71
29215;BME280;16252;49.816;7.964;2023-01-27T05:00:05;100480.19;;;5.13;67.06
29215;BME280;16252;49.816;7.964;2023-01-27T05:02:30;100485.34;;;5.16;66.87
29215;BME280;16252;49.816;7.964;2023-01-27T05:04:56;100474.03;;;5.12;66.86
29215;BME280;16252;49.816;7.964;2023-01-27T05:07:22;100485.28;;;5.17;66.92
29215;BME280;16252;49.816;7.964;2023-01-27T05:09:47;100476.94;;;5.06;66.80
29215;BME280;16252;49.816;7.964;2023-01-27T05:12:13;100463.91;;;5.02;67.02
29215;BME280;16252;49.816;7.964;2023-01-27T05:14:38;100491.00;;;5.08;66.71
29215;BME280;16252;49.816;7.964;2023-01-27T05:17:04;100446.81;;;4.88;66.86
29215;BME280;16252;49.816;7.964;2023-01-27T05:19:29;100473.56;;;5.03;66.86
29215;BME280;16252;49.816;7.964;2023-01-27T05:21:54;100489.94;;;5.12;66.74
29215;BME280;16252;49.816;7.964;2023-01-27T05:24:20;100480.69;;;5.02;66.87
29215;BME280;16252;49.816;7.964;2023-01-27T05:26:45;100472.63;;;5.04;66.81
29215;BME280;16252;49.816;7.964;2023-01-27T05:29:10;100486.63;;;5.07;66.67
29215;BME280;16252;49.816;7.964;2023-01-27T05:31:35;100493.59;;;5.10;66.73
29215;BME280;16252;49.816;7.964;2023-01-27T05:34:01;100483.97;;;5.07;66.79
29215;BME280;16252;49.816;7.964;2023-01-27T05:36:27;100519.47;;;5.24;67.06
29215;BME280;16252;49.816;7.964;2023-01-27T05:38:54;100493.50;;;5.11;66.83
29215;BME280;16252;49.816;7.964;2023-01-27T05:41:20;100462.53;;;4.93;66.90
29215;BME280;16252;49.816;7.964;2023-01-27T05:43:50;100498.59;;;5.16;66.96
29215;BME280;16252;49.816;7.964;2023-01-27T05:46:18;100523.66;;;5.29;67.01
29215;BME280;16252;49.816;7.964;2023-01-27T05:48:46;100521.84;;;5.30;66.97
29215;BME280;16252;49.816;7.964;2023-01-27T05:51:12;100509.06;;;5.19;66.88
29215;BME280;16252;49.816;7.964;2023-01-27T05:53:38;100532.47;;;5.30;66.90
29215;BME280;16252;49.816;7.964;2023-01-27T05:56:04;100480.59;;;5.04;66.79
29215;BME280;16252;49.816;7.964;2023-01-27T05:58:30;100509.00;;;5.20;66.80
29215;BME280;16252;49.816;7.964;2023-01-27T06:00:56;100519.25;;;5.28;66.73
29215;BME280;16252;49.816;7.964;2023-01-27T06:03:22;100506.16;;;5.25;66.83
29215;BME280;16252;49.816;7.964;2023-01-27T06:05:56;100498.53;;;5.17;66.89
29215;BME280;16252;49.816;7.964;2023-01-27T06:08:32;100528.72;;;5.34;66.82
29215;BME280;16252;49.816;7.964;2023-01-27T06:10:58;100430.69;;;4.74;66.63
29215;BME280;16252;49.816;7.964;2023-01-27T06:13:26;100442.22;;;4.73;66.67
29215;BME280;16252;49.816;7.964;2023-01-27T06:15:55;100466.69;;;4.98;66.90
29215;BME280;16252;49.816;7.964;2023-01-27T06:18:21;100452.22;;;4.87;66.64
29215;BME280;16252;49.816;7.964;2023-01-27T06:20:56;100416.78;;;4.69;66.86
29215;BME280;16252;49.816;7.964;2023-01-27T06:23:22;100354.19;;;4.27;66.61
29215;BME280;16252;49.816;7.964;2023-01-27T06:25:47;100399.13;;;4.49;66.61
29215;BME280;16252;49.816;7.964;2023-01-27T06:28:14;100466.16;;;4.90;66.61
29215;BME280;16252;49.816;7.964;2023-01-27T06:30:40;100545.44;;;5.36;66.90
29215;BME280;16252;49.816;7.964;2023-01-27T06:33:06;100463.53;;;4.90;66.64
29215;BME280;16252;49.816;7.964;2023-01-27T06:35:33;100469.78;;;4.89;66.73
29215;BME280;16252;49.816;7.964;2023-01-27T06:38:00;100507.28;;;5.19;66.83
29215;BME280;16252;49.816;7.964;2023-01-27T06:40:26;100514.25;;;5.22;66.96
29215;BME280;16252;49.816;7.964;2023-01-27T06:42:55;100530.53;;;5.33;67.00
29215;BME280;16252;49.816;7.964;2023-01-27T06:45:21;100526.44;;;5.26;66.84
29215;BME280;16252;49.816;7.964;2023-01-27T06:47:56;100533.81;;;5.38;66.95
29215;BME280;16252;49.816;7.964;2023-01-27T06:50:22;100548.59;;;5.44;66.62
29215;BME280;16252;49.816;7.964;2023-01-27T06:52:48;100550.59;;;5.39;66.72
29215;BME280;16252;49.816;7.964;2023-01-27T06:55:14;100542.00;;;5.34;66.67
29215;BME280;16252;49.816;7.964;2023-01-27T06:57:39;100547.31;;;5.34;66.45
29215;BME280;16252;49.816;7.964;2023-01-27T07:00:05;100541.13;;;5.33;66.42
29215;BME280;16252;49.816;7.964;2023-01-27T07:02:33;100527.38;;;5.25;66.71
29215;BME280;16252;49.816;7.964;2023-01-27T07:04:58;100543.88;;;5.32;66.59
29215;BME280;16252;49.816;7.964;2023-01-27T07:07:23;100544.53;;;5.37;66.55
29215;BME280;16252;49.816;7.964;2023-01-27T07:09:49;100550.53;;;5.40;66.60
29215;BME280;16252;49.816;7.964;2023-01-27T07:12:14;100548.94;;;5.36;66.43
29215;BME280;16252;49.816;7.964;2023-01-27T07:14:39;100556.91;;;5.36;66.47
29215;BME280;16252;49.816;7.964;2023-01-27T07:17:06;100563.75;;;5.42;66.76
29215;BME280;16252;49.816;7.964;2023-01-27T07:19:31;100529.28;;;5.21;66.66
29215;BME280;16252;49.816;7.964;2023-01-27T07:21:57;100529.53;;;5.17;66.65
29215;BME280;16252;49.816;7.964;2023-01-27T07:24:22;100558.16;;;5.29;66.50
29215;BME280;16252;49.816;7.964;2023-01-27T07:26:47;100573.06;;;5.32;66.84
29215;BME280;16252;49.816;7.964;2023-01-27T07:29:13;100568.69;;;5.31;66.71
29215;BME280;16252;49.816;7.964;2023-01-27T07:31:38;100576.63;;;5.31;66.68
29215;BME280;16252;49.816;7.964;2023-01-27T07:34:04;100578.09;;;5.38;66.75
29215;BME280;16252;49.816;7.964;2023-01-27T07:36:29;100571.19;;;5.34;66.75
29215;BME280;16252;49.816;7.964;2023-01-27T07:38:54;100580.75;;;5.38;66.77
29215;BME280;16252;49.816;7.964;2023-01-27T07:41:19;100556.56;;;5.25;66.79
29215;BME280;16252;49.816;7.964;2023-01-27T07:43:47;100555.75;;;5.23;66.78
29215;BME280;16252;49.816;7.964;2023-01-27T07:46:12;100563.38;;;5.31;66.60
29215;BME280;16252;49.816;7.964;2023-01-27T07:48:37;100554.97;;;5.21;66.82
29215;BME280;16252;49.816;7.964;2023-01-27T07:51:03;100570.91;;;5.40;66.95
29215;BME280;16252;49.816;7.964;2023-01-27T07:53:28;100586.63;;;5.45;66.73
29215;BME280;16252;49.816;7.964;2023-01-27T07:55:53;100586.63;;;5.45;66.87
29215;BME280;16252;49.816;7.964;2023-01-27T07:58:18;100589.34;;;5.43;66.84
29215;BME280;16252;49.816;7.964;2023-01-27T08:00:44;100572.19;;;5.31;66.71
29215;BME280;16252;49.816;7.964;2023-01-27T08:03:20;100599.41;;;5.55;66.81
29215;BME280;16252;49.816;7.964;2023-01-27T08:05:46;100577.28;;;5.36;66.87
29215;BME280;16252;49.816;7.964;2023-01-27T08:08:11;100547.84;;;5.21;66.79
29215;BME280;16252;49.816;7.964;2023-01-27T08:10:37;100586.03;;;5.38;66.65
29215;BME280;16252;49.816;7.964;2023-01-27T08:13:02;100575.72;;;5.32;66.73
29215;BME280;16252;49.816;7.964;2023-01-27T08:15:27;100581.69;;;5.37;66.67
29215;BME280;16252;49.816;7.964;2023-01-27T08:17:54;100576.38;;;5.37;66.99
29215;BME280;16252;49.816;7.964;2023-01-27T08:20:21;100599.81;;;5.46;66.68
29215;BME280;16252;49.816;7.964;2023-01-27T08:22:46;100605.06;;;5.48;66.89
29215;BME280;16252;49.816;7.964;2023-01-27T08:25:11;100566.13;;;5.29;66.75
29215;BME280;16252;49.816;7.964;2023-01-27T08:27:37;100596.31;;;5.46;67.16
29215;BME280;16252;49.816;7.964;2023-01-27T08:30:02;100567.13;;;5.27;66.98
29215;BME280;16252;49.816;7.964;2023-01-27T08:32:27;100586.84;;;5.40;66.81
29215;BME280;16252;49.816;7.964;2023-01-27T08:34:53;100606.44;;;5.56;66.85
29215;BME280;16252;49.816;7.964;2023-01-27T08:37:19;100563.50;;;5.28;66.83
29215;BME280;16252;49.816;7.964;2023-01-27T08:39:44;100528.13;;;5.08;66.99
29215;BME280;16252;49.816;7.964;2023-01-27T08:42:10;100558.16;;;5.29;67.07
29215;BME280;16252;49.816;7.964;2023-01-27T08:44:35;100600.47;;;5.51;67.13
29215;BME280;16252;49.816;7.964;2023-01-27T08:47:00;100584.19;;;5.40;66.84
29215;BME280;16252;49.816;7.964;2023-01-27T08:49:25;100628.97;;;5.67;67.03
29215;BME280;16252;49.816;7.964;2023-01-27T08:51:51;100597.91;;;5.50;66.89
29215;BME280;16252;49.816;7.964;2023-01-27T08:54:16;100592.66;;;5.48;67.08
29215;BME280;16252;49.816;7.964;2023-01-27T08:56:41;100634.94;;;5.72;66.94
29215;BME280;16252;49.816;7.964;2023-01-27T08:59:06;100634.22;;;5.68;67.06
29215;BME280;16252;49.816;7.964;2023-01-27T09:01:32;100622.09;;;5.62;67.11
29215;BME280;16252;49.816;7.964;2023-01-27T09:03:57;100489.72;;;4.77;66.92
29215;BME280;16252;49.816;7.964;2023-01-27T09:06:22;100648.09;;;5.75;67.16
29215;BME280;16252;49.816;7.964;2023-01-27T09:08:49;100607.44;;;5.54;67.02
29215;BME280;16252;49.816;7.964;2023-01-27T09:11:33;100660.13;;;5.82;66.98
29215;BME280;16252;49.816;7.964;2023-01-27T09:13:59;100640.25;;;5.72;66.76
29215;BME280;16252;49.816;7.964;2023-01-27T09:16:24;100583.41;;;5.38;66.55
29215;BME280;16252;49.816;7.964;2023-01-27T09:18:50;100643.78;;;5.72;66.56
29215;BME280;16252;49.816;7.964;2023-01-27T09:21:15;100668.97;;;5.82;66.69
29215;BME280;16252;49.816;7.964;2023-01-27T09:23:41;100605.78;;;5.51;66.88
29215;BME280;16252;49.816;7.964;2023-01-27T09:26:06;100647.09;;;5.77;66.93
29215;BME280;16252;49.816;7.964;2023-01-27T09:28:31;100627.97;;;5.69;67.07
29215;BME280;16252;49.816;7.964;2023-01-27T09:30:57;100667.63;;;5.93;67.12
29215;BME280;16252;49.816;7.964;2023-01-27T09:33:22;100637.31;;;5.78;67.09
29215;BME280;16252;49.816;7.964;2023-01-27T09:36:13;100665.28;;;6.05;67.17
29215;BME280;16252;49.816;7.964;2023-01-27T09:38:52;100631.91;;;5.79;67.17
29215;BME280;16252;49.816;7.964;2023-01-27T09:41:42;100672.94;;;6.12;67.17
29215;BME280;16252;49.816;7.964;2023-01-27T09:47:27;100677.97;;;6.18;66.99
29215;BME280;16252;49.816;7.964;2023-01-27T09:58:09;100667.50;;;6.15;66.78
29215;BME280;16252;49.816;7.964;2023-01-27T10:12:10;100671.38;;;6.26;66.93
29215;BME280;16252;49.816;7.964;2023-01-27T10:17:36;100672.72;;;6.35;66.96
29215;BME280;16252;49.816;7.964;2023-01-27T10:20:16;100672.06;;;6.30;66.63
29215;BME280;16252;49.816;7.964;2023-01-27T10:25:47;100672.66;;;6.37;66.63
29215;BME280;16252;49.816;7.964;2023-01-27T10:28:21;100671.16;;;6.31;66.71
29215;BME280;16252;49.816;7.964;2023-01-27T10:30:59;100676.16;;;6.37;66.88
29215;BME280;16252;49.816;7.964;2023-01-27T10:33:55;100600.88;;;6.00;66.69
29215;BME280;16252;49.816;7.964;2023-01-27T10:36:27;100666.47;;;6.36;66.90
29215;BME280;16252;49.816;7.964;2023-01-27T10:39:09;100670.00;;;6.37;66.87
29215;BME280;16252;49.816;7.964;2023-01-27T10:44:33;100651.75;;;6.29;66.79
29215;BME280;16252;49.816;7.964;2023-01-27T10:47:10;100664.53;;;6.40;66.80
29215;BME280;16252;49.816;7.964;2023-01-27T10:49:45;100618.97;;;6.11;66.80
29215;BME280;16252;49.816;7.964;2023-01-27T10:52:17;100666.25;;;6.41;67.14
29215;BME280;16252;49.816;7.964;2023-01-27T10:54:46;100656.66;;;6.56;66.58
29215;BME280;16252;49.816;7.964;2023-01-27T10:57:24;100624.47;;;6.25;66.66
29215;BME280;16252;49.816;7.964;2023-01-27T11:00:04;100655.25;;;6.48;66.74
29215;BME280;16252;49.816;7.964;2023-01-27T11:02:43;100655.25;;;6.48;66.92
29215;BME280;16252;49.816;7.964;2023-01-27T11:05:20;100600.91;;;6.18;66.80
29215;BME280;16252;49.816;7.964;2023-01-27T11:07:51;100638.09;;;6.37;66.79
29215;BME280;16252;49.816;7.964;2023-01-27T11:10:21;100602.94;;;6.13;66.68
29215;BME280;16252;49.816;7.964;2023-01-27T11:12:53;100639.81;;;6.38;66.33
29215;BME280;16252;49.816;7.964;2023-01-27T11:15:29;100663.28;;;6.47;66.54
29215;BME280;16252;49.816;7.964;2023-01-27T11:20:39;100628.78;;;6.28;66.24
29215;BME280;16252;49.816;7.964;2023-01-27T11:23:12;100646.13;;;6.35;66.35
29215;BME280;16252;49.816;7.964;2023-01-27T11:25:49;100646.38;;;6.31;66.34
29215;BME280;16252;49.816;7.964;2023-01-27T11:28:30;100647.25;;;6.31;66.37
29215;BME280;16252;49.816;7.964;2023-01-27T11:34:04;100638.03;;;6.19;66.58
29215;BME280;16252;49.816;7.964;2023-01-27T11:36:32;100602.75;;;5.98;66.85
29215;BME280;16252;49.816;7.964;2023-01-27T11:38:58;100593.25;;;5.93;66.72
29215;BME280;16252;49.816;7.964;2023-01-27T11:41:25;100619.31;;;6.03;66.60
29215;BME280;16252;49.816;7.964;2023-01-27T11:43:51;100596.03;;;5.90;66.59
29215;BME280;16252;49.816;7.964;2023-01-27T11:46:23;100654.25;;;6.32;66.63
29215;BME280;16252;49.816;7.964;2023-01-27T11:48:54;100647.25;;;6.31;66.56
29215;BME280;16252;49.816;7.964;2023-01-27T11:51:24;100656.13;;;6.30;66.32
29215;BME280;16252;49.816;7.964;2023-01-27T11:53:55;100610.50;;;6.03;66.37
29215;BME280;16252;49.816;7.964;2023-01-27T11:56:26;100633.59;;;6.20;66.29
29215;BME280;16252;49.816;7.964;2023-01-27T11:59:00;100648.03;;;6.33;66.32
29215;BME280;16252;49.816;7.964;2023-01-27T12:01:42;100615.13;;;6.17;66.48
29215;BME280;16252;49.816;7.964;2023-01-27T12:04:18;100627.19;;;6.24;66.34
29215;BME280;16252;49.816;7.964;2023-01-27T12:06:53;100645.06;;;6.39;65.98
29215;BME280;16252;49.816;7.964;2023-01-27T12:09:36;100643.09;;;6.43;65.88
29215;BME280;16252;49.816;7.964;2023-01-27T12:14:59;100643.84;;;6.46;65.86
29215;BME280;16252;49.816;7.964;2023-01-27T12:17:41;100635.84;;;6.46;65.71
29215;BME280;16252;49.816;7.964;2023-01-27T12:22:52;100599.47;;;6.29;65.74
29215;BME280;16252;49.816;7.964;2023-01-27T12:25:24;100641.00;;;6.49;65.67
29215;BME280;16252;49.816;7.964;2023-01-27T12:27:55;100636.56;;;6.50;65.86
29215;BME280;16252;49.816;7.964;2023-01-27T12:30:31;100635.53;;;6.53;65.74
29215;BME280;16252;49.816;7.964;2023-01-27T12:32:58;100521.19;;;5.81;65.67
29215;BME280;16252;49.816;7.964;2023-01-27T12:35:27;100516.59;;;5.85;65.68
29215;BME280;16252;49.816;7.964;2023-01-27T12:38:17;100572.25;;;6.24;65.84
29215;BME280;16252;49.816;7.964;2023-01-27T12:40:42;100585.16;;;6.32;65.76
29215;BME280;16252;49.816;7.964;2023-01-27T12:43:14;100611.06;;;6.63;65.31
29215;BME280;16252;49.816;7.964;2023-01-27T12:45:41;100615.53;;;6.63;65.59
29215;BME280;16252;49.816;7.964;2023-01-27T12:48:16;100611.63;;;6.70;64.83
29215;BME280;16252;49.816;7.964;2023-01-27T12:50:53;100604.44;;;6.72;64.57
29215;BME280;16252;49.816;7.964;2023-01-27T12:53:26;100591.75;;;6.60;64.64
29215;BME280;16252;49.816;7.964;2023-01-27T12:56:11;100602.34;;;6.79;64.27
29215;BME280;16252;49.816;7.964;2023-01-27T12:58:40;100611.47;;;6.73;64.13
29215;BME280;16252;49.816;7.964;2023-01-27T13:04:20;100580.50;;;6.72;64.20
29215;BME280;16252;49.816;7.964;2023-01-27T13:06:49;100610.31;;;6.79;64.13
29215;BME280;16252;49.816;7.964;2023-01-27T13:12:11;100590.97;;;6.75;63.79
29215;BME280;16252;49.816;7.964;2023-01-27T13:14:40;100601.22;;;6.83;64.08
29215;BME280;16252;49.816;7.964;2023-01-27T13:17:26;100575.34;;;6.69;63.85
29215;BME280;16252;49.816;7.964;2023-01-27T13:19:53;100602.41;;;6.77;63.96
29215;BME280;16252;49.816;7.964;2023-01-27T13:22:22;100581.53;;;6.69;63.96
29215;BME280;16252;49.816;7.964;2023-01-27T13:24:51;100566.88;;;6.61;64.05
29215;BME280;16252;49.816;7.964;2023-01-27T13:27:20;100615.88;;;6.91;63.89
29215;BME280;16252;49.816;7.964;2023-01-27T13:29:54;100618.38;;;6.94;63.49
29215;BME280;16252;49.816;7.964;2023-01-27T13:32:26;100599.59;;;6.80;63.64
29215;BME280;16252;49.816;7.964;2023-01-27T13:35:13;100612.50;;;7.05;63.62
29215;BME280;16252;49.816;7.964;2023-01-27T13:38:35;100602.88;;;6.85;63.66
29215;BME280;16252;49.816;7.964;2023-01-27T13:40:43;100581.28;;;6.74;63.59
29215;BME280;16252;49.816;7.964;2023-01-27T13:43:16;100590.13;;;6.75;63.31
29215;BME280;16252;49.816;7.964;2023-01-27T13:45:53;100621.31;;;6.88;63.35
29215;BME280;16252;49.816;7.964;2023-01-27T13:48:30;100624.78;;;6.90;63.56
29215;BME280;16252;49.816;7.964;2023-01-27T13:51:05;100622.22;;;6.89;63.39
29215;BME280;16252;49.816;7.964;2023-01-27T13:53:32;100579.41;;;6.59;63.60
29215;BME280;16252;49.816;7.964;2023-01-27T13:59:13;100610.16;;;6.82;63.61
29215;BME280;16252;49.816;7.964;2023-01-27T14:07:19;100622.59;;;6.81;63.23
29215;BME280;16252;49.816;7.964;2023-01-27T14:13:44;100638.00;;;6.92;63.40
29215;BME280;16252;49.816;7.964;2023-01-27T14:15:49;100626.66;;;6.88;63.50
29215;BME280;16252;49.816;7.964;2023-01-27T14:18:33;100604.50;;;6.70;63.14